Al Mirqab — ZCTS4 — position and weather

sailwx.info

Track history (hours):
 
Tides and Currents Weather Stations Pressure Air Temp Water Temp Dewpoint Dewpoint Depression Visibility Wind Speed Wind Dir Waves Ship Positions

Al Mirqab

Last reported at 2014-Jul-30 22:12 UTC. Time now 2014-Aug-01 03:53 UTC.
Position N 40°37' E 013°42'.

Length 133 m; draft 5.2 m.

Type: Pleasure craft. MMSI: 319361000.

Date/timePositionNaut miles runAvg speedWind from/ knotsBaromVisibWave heightAir tempDewpointWater temp
2014-Jul-30 22:12N 40°37' E 013°42'1014.8
2014-Jul-30 21:33N 40°36' E 013°55'1414.5
2014-Jul-30 20:33N 40°34' E 014°14'1 0.6
2014-Jul-30 19:33N 40°34' E 014°14'0 0.0
2014-Jul-30 18:33N 40°34' E 014°14'0 0.3
2014-Jul-30 17:24N 40°34' E 014°15'9 1.3
2014-Jul-30 10:32N 40°34' E 014°26'9 0.6
2014-Jul-29 20:16N 40°32' E 014°14'0 0.0
2014-Jul-29 19:31N 40°32' E 014°14'0 0.0
2014-Jul-29 18:32N 40°32' E 014°14'0 0.0
2014-Jul-29 17:33N 40°32' E 014°14'0 0.0
2014-Jul-29 16:30N 40°32' E 014°14'0 0.0
2014-Jul-29 15:16N 40°32' E 014°14'0 0.0
2014-Jul-29 14:32N 40°32' E 014°14'0 0.0
2014-Jul-29 13:32N 40°32' E 014°14'4 0.2
2014-Jul-28 12:31N 40°36' E 014°12'  
2014-Jul-25 08:34N 40°49' E 014°17'1212.2
2014-Jul-25 07:33N 40°37' E 014°12'0 0.0
2014-Jul-25 06:33N 40°37' E 014°12'  
Track history (hours):
 
Tides and Currents Weather Stations Pressure Air Temp Water Temp Dewpoint Dewpoint Depression Visibility Wind Speed Wind Dir Waves Ship Positions

Al Mirqab

Last reported at 2014-Jul-30 22:12 UTC. Time now 2014-Aug-01 03:53 UTC.
Position N 40°37' E 013°42'.

Length 133 m; draft 5.2 m.

Type: Pleasure craft. MMSI: 319361000.

Date/timePositionNaut miles runAvg speedWind from/ knotsBaromVisibWave heightAir tempDewpointWater temp
2014-Jul-30 22:12N 40°37' E 013°42'1014.8
2014-Jul-30 21:33N 40°36' E 013°55'1414.5
2014-Jul-30 20:33N 40°34' E 014°14'1 0.6
2014-Jul-30 19:33N 40°34' E 014°14'0 0.0
2014-Jul-30 18:33N 40°34' E 014°14'0 0.3
2014-Jul-30 17:24N 40°34' E 014°15'9 1.3
2014-Jul-30 10:32N 40°34' E 014°26'9 0.6
2014-Jul-29 20:16N 40°32' E 014°14'0 0.0
2014-Jul-29 19:31N 40°32' E 014°14'0 0.0
2014-Jul-29 18:32N 40°32' E 014°14'0 0.0
2014-Jul-29 17:33N 40°32' E 014°14'0 0.0
2014-Jul-29 16:30N 40°32' E 014°14'0 0.0
2014-Jul-29 15:16N 40°32' E 014°14'0 0.0
2014-Jul-29 14:32N 40°32' E 014°14'0 0.0
2014-Jul-29 13:32N 40°32' E 014°14'4 0.2
2014-Jul-28 12:31N 40°36' E 014°12'  
2014-Jul-25 08:34N 40°49' E 014°17'1212.2
2014-Jul-25 07:33N 40°37' E 014°12'0 0.0
2014-Jul-25 06:33N 40°37' E 014°12'  

Dump ship's entire track history